createdAt,value
2022-12-31T00:00:22.561Z,11.87
2022-12-31T00:01:22.663Z,11.88
2022-12-31T00:02:22.950Z,11.88
2022-12-31T00:03:22.655Z,11.84
2022-12-31T00:04:22.502Z,11.81
2022-12-31T00:05:22.405Z,11.87
2022-12-31T00:06:22.471Z,11.80
2022-12-31T00:07:22.390Z,11.80
2022-12-31T00:08:22.379Z,11.84
2022-12-31T00:09:22.374Z,11.80
2022-12-31T00:10:22.413Z,11.90
2022-12-31T00:11:22.346Z,11.97
2022-12-31T00:12:22.363Z,11.95
2022-12-31T00:13:22.348Z,11.84
2022-12-31T00:14:22.333Z,11.95
2022-12-31T00:15:22.371Z,11.90
2022-12-31T00:16:22.350Z,11.99
2022-12-31T00:17:22.505Z,11.97
2022-12-31T00:18:22.313Z,11.88
2022-12-31T00:19:22.313Z,11.97
2022-12-31T00:20:22.291Z,11.90
2022-12-31T00:21:22.254Z,11.91
2022-12-31T00:22:22.247Z,12.00
2022-12-31T00:23:22.272Z,11.91
2022-12-31T00:24:22.256Z,12.02
2022-12-31T00:25:22.255Z,11.97
2022-12-31T00:26:22.240Z,12.04
2022-12-31T00:27:22.282Z,12.10
2022-12-31T00:28:22.259Z,12.00
2022-12-31T00:29:22.175Z,11.91
2022-12-31T00:30:22.174Z,11.94
2022-12-31T00:31:22.238Z,11.91
2022-12-31T00:32:22.182Z,12.07
2022-12-31T00:33:22.225Z,12.09
2022-12-31T00:34:22.183Z,12.07
2022-12-31T00:35:22.144Z,12.06
2022-12-31T00:36:22.217Z,11.99
2022-12-31T00:37:22.103Z,12.07
2022-12-31T00:38:22.129Z,12.03
2022-12-31T00:39:22.124Z,12.12
2022-12-31T00:40:22.099Z,12.13
2022-12-31T00:41:22.103Z,12.10
2022-12-31T00:42:22.091Z,12.25
2022-12-31T00:43:22.070Z,12.24
2022-12-31T00:44:22.081Z,12.25
2022-12-31T00:45:22.072Z,12.22
2022-12-31T00:46:22.130Z,12.25
2022-12-31T00:47:22.231Z,12.24
2022-12-31T00:48:22.065Z,12.25
2022-12-31T00:49:22.025Z,12.28
2022-12-31T00:50:22.230Z,12.12
2022-12-31T00:51:22.000Z,12.22
2022-12-31T00:52:22.013Z,12.28
2022-12-31T00:53:21.993Z,12.20
2022-12-31T00:54:21.975Z,12.09
2022-12-31T00:55:21.983Z,12.17
2022-12-31T00:56:22.131Z,12.13
2022-12-31T00:57:21.956Z,12.10
2022-12-31T00:58:21.963Z,12.06
2022-12-31T00:59:21.931Z,12.12
2022-12-31T01:00:21.912Z,12.18
2022-12-31T01:01:22.031Z,12.27
2022-12-31T01:02:22.151Z,12.25
2022-12-31T01:03:21.967Z,12.24
2022-12-31T01:04:21.896Z,12.27
2022-12-31T01:05:21.853Z,12.25
2022-12-31T01:06:21.863Z,12.22
2022-12-31T01:07:21.821Z,12.32
2022-12-31T01:08:22.439Z,12.40
2022-12-31T01:09:21.854Z,12.24
2022-12-31T01:10:21.993Z,12.32
2022-12-31T01:11:21.839Z,12.32
2022-12-31T01:12:21.811Z,12.25
2022-12-31T01:13:21.850Z,12.32
2022-12-31T01:14:21.799Z,12.24
2022-12-31T01:15:21.993Z,12.39
2022-12-31T01:16:21.767Z,12.35
2022-12-31T01:17:21.959Z,12.47
2022-12-31T01:18:21.757Z,12.46
2022-12-31T01:19:21.747Z,12.46
2022-12-31T01:20:21.732Z,12.40
2022-12-31T01:21:21.725Z,12.36
2022-12-31T01:22:21.742Z,12.28
2022-12-31T01:23:21.902Z,12.29
2022-12-31T01:24:21.750Z,12.31
2022-12-31T01:25:21.895Z,12.42
2022-12-31T01:26:21.899Z,12.29
2022-12-31T01:27:21.668Z,12.36
2022-12-31T01:28:21.686Z,12.37
2022-12-31T01:29:21.631Z,12.31
2022-12-31T01:30:21.639Z,12.31
2022-12-31T01:31:21.682Z,12.29
2022-12-31T01:32:21.631Z,12.32
2022-12-31T01:33:21.617Z,12.49
2022-12-31T01:34:21.847Z,12.45
2022-12-31T01:35:21.592Z,12.47
2022-12-31T01:36:25.604Z,12.50
2022-12-31T01:37:21.593Z,12.58
2022-12-31T01:38:21.565Z,12.57
2022-12-31T01:39:21.562Z,12.57
2022-12-31T01:40:21.560Z,12.50
2022-12-31T01:41:21.521Z,12.43
2022-12-31T01:42:21.521Z,12.43
2022-12-31T01:43:21.513Z,12.43
2022-12-31T01:44:21.501Z,12.45
2022-12-31T01:45:21.482Z,12.35
2022-12-31T01:46:21.497Z,12.36
2022-12-31T01:47:21.505Z,12.36
2022-12-31T01:48:21.520Z,12.29
2022-12-31T01:49:21.536Z,12.28
2022-12-31T01:50:21.442Z,12.32
2022-12-31T01:51:21.442Z,12.31
2022-12-31T01:52:21.437Z,12.32
2022-12-31T01:53:21.445Z,12.27
2022-12-31T01:54:21.416Z,12.29
2022-12-31T01:55:21.408Z,12.27
2022-12-31T01:56:21.449Z,12.28
2022-12-31T01:57:21.617Z,12.31
2022-12-31T01:58:21.385Z,12.29
2022-12-31T01:59:21.582Z,12.27
2022-12-31T02:00:21.332Z,12.18
2022-12-31T02:01:21.431Z,12.31
2022-12-31T02:02:21.488Z,12.27
2022-12-31T02:03:21.374Z,12.28
2022-12-31T02:04:21.345Z,12.31
2022-12-31T02:05:21.302Z,12.24
2022-12-31T02:06:21.312Z,12.20
2022-12-31T02:07:21.302Z,12.22
2022-12-31T02:08:21.275Z,12.20
2022-12-31T02:09:21.314Z,12.12
2022-12-31T02:10:21.304Z,12.10
2022-12-31T02:11:21.243Z,12.17
2022-12-31T02:12:21.273Z,12.13
2022-12-31T02:13:21.231Z,12.18
2022-12-31T02:14:21.210Z,12.20
2022-12-31T02:15:21.195Z,12.07
2022-12-31T02:16:21.207Z,12.12
2022-12-31T02:17:21.202Z,12.09
2022-12-31T02:18:21.205Z,12.12
2022-12-31T02:19:21.173Z,12.10
2022-12-31T02:20:21.153Z,12.10
2022-12-31T02:21:21.185Z,12.10
2022-12-31T02:22:21.124Z,12.24
2022-12-31T02:23:21.132Z,12.18
2022-12-31T02:24:21.118Z,12.20
2022-12-31T02:25:21.124Z,12.27
2022-12-31T02:26:21.121Z,12.20
2022-12-31T02:27:21.137Z,12.20
2022-12-31T02:28:21.130Z,12.22
2022-12-31T02:29:21.082Z,12.22
2022-12-31T02:30:21.095Z,12.24
2022-12-31T02:31:21.104Z,12.28
2022-12-31T02:32:21.104Z,12.24
2022-12-31T02:33:21.074Z,12.25
2022-12-31T02:34:21.046Z,12.25
2022-12-31T02:35:21.025Z,12.29
2022-12-31T02:36:21.019Z,12.29
2022-12-31T02:37:20.999Z,12.37
2022-12-31T02:38:21.044Z,12.35
2022-12-31T02:39:21.017Z,12.39
2022-12-31T02:40:20.998Z,12.29
2022-12-31T02:41:20.968Z,12.45
2022-12-31T02:42:21.223Z,12.45
2022-12-31T02:43:20.950Z,12.54
2022-12-31T02:44:21.006Z,12.53
2022-12-31T02:45:20.957Z,12.45
2022-12-31T02:46:20.985Z,12.54
2022-12-31T02:47:20.952Z,12.53
2022-12-31T02:48:20.910Z,12.45
2022-12-31T02:49:20.932Z,12.57
2022-12-31T02:50:20.898Z,12.60
2022-12-31T02:51:20.888Z,12.65
2022-12-31T02:52:20.916Z,12.65
2022-12-31T02:53:20.904Z,12.62
2022-12-31T02:54:20.870Z,12.64
2022-12-31T02:55:20.862Z,12.62
2022-12-31T02:56:20.848Z,12.55
2022-12-31T02:57:20.848Z,12.64
2022-12-31T02:58:20.853Z,12.58
2022-12-31T02:59:20.832Z,12.72
2022-12-31T03:00:20.855Z,12.67
2022-12-31T03:01:20.904Z,12.73
2022-12-31T03:02:21.101Z,12.79
2022-12-31T03:03:20.974Z,12.70
2022-12-31T03:04:20.783Z,12.78
2022-12-31T03:05:20.753Z,12.90
2022-12-31T03:06:20.775Z,12.91
2022-12-31T03:07:20.752Z,13.01
2022-12-31T03:08:20.759Z,13.05
2022-12-31T03:09:20.916Z,13.11
2022-12-31T03:10:20.929Z,13.20
2022-12-31T03:11:20.736Z,13.30
2022-12-31T03:12:20.698Z,13.39
2022-12-31T03:13:20.706Z,13.46
2022-12-31T03:14:20.752Z,13.49
2022-12-31T03:15:20.701Z,13.62
2022-12-31T03:16:20.710Z,13.60
2022-12-31T03:17:20.690Z,13.52
2022-12-31T03:18:20.835Z,13.56
2022-12-31T03:19:20.658Z,13.54
2022-12-31T03:20:20.634Z,13.54
2022-12-31T03:21:20.633Z,13.54
2022-12-31T03:22:20.809Z,13.54
2022-12-31T03:23:20.629Z,13.50
2022-12-31T03:24:20.610Z,13.56
2022-12-31T03:25:20.583Z,13.59
2022-12-31T03:26:20.601Z,13.56
2022-12-31T03:27:20.577Z,13.60
2022-12-31T03:28:20.549Z,13.57
2022-12-31T03:29:20.595Z,13.60
2022-12-31T03:30:20.532Z,13.70
2022-12-31T03:31:20.551Z,13.78
2022-12-31T03:32:20.779Z,13.74
2022-12-31T03:33:20.532Z,13.78
2022-12-31T03:34:20.496Z,13.89
2022-12-31T03:35:20.510Z,13.89
2022-12-31T03:36:20.484Z,13.87
2022-12-31T03:37:20.518Z,13.86
2022-12-31T03:38:20.472Z,13.81
2022-12-31T03:39:20.508Z,13.89
2022-12-31T03:40:20.481Z,13.89
2022-12-31T03:41:20.479Z,13.83
2022-12-31T03:42:20.435Z,14.00
2022-12-31T03:43:20.475Z,13.87
2022-12-31T03:44:20.462Z,13.85
2022-12-31T03:45:20.431Z,13.87
2022-12-31T03:46:20.438Z,13.89
2022-12-31T03:47:20.438Z,13.85
2022-12-31T03:48:20.486Z,13.85
2022-12-31T03:49:20.410Z,13.85
2022-12-31T03:50:20.399Z,13.85
2022-12-31T03:51:20.393Z,13.77
2022-12-31T03:52:20.374Z,13.72
2022-12-31T03:53:20.373Z,13.89
2022-12-31T03:54:20.356Z,13.87
2022-12-31T03:55:20.391Z,13.79
2022-12-31T03:56:20.558Z,13.81
2022-12-31T03:57:20.338Z,13.92
2022-12-31T03:58:20.319Z,13.83
2022-12-31T03:59:20.311Z,13.87
2022-12-31T04:00:20.418Z,13.92
2022-12-31T04:01:20.457Z,13.93
2022-12-31T04:02:26.293Z,13.77
2022-12-31T04:03:20.352Z,13.85
2022-12-31T04:04:20.280Z,13.79
2022-12-31T04:05:20.257Z,13.86
2022-12-31T04:06:20.240Z,13.96
2022-12-31T04:07:20.267Z,13.97
2022-12-31T04:08:20.237Z,13.93
2022-12-31T04:09:20.203Z,14.03
2022-12-31T04:10:20.244Z,14.03
2022-12-31T04:11:21.144Z,14.07
2022-12-31T04:12:20.241Z,14.15
2022-12-31T04:13:20.384Z,14.18
2022-12-31T04:14:20.166Z,14.18
2022-12-31T04:15:20.177Z,14.08
2022-12-31T04:16:20.235Z,14.10
2022-12-31T04:17:20.172Z,14.20
2022-12-31T04:18:20.149Z,14.22
2022-12-31T04:19:20.128Z,14.15
2022-12-31T04:20:20.228Z,14.15
2022-12-31T04:21:20.316Z,14.00
2022-12-31T04:22:20.140Z,14.04
2022-12-31T04:23:20.104Z,14.08
2022-12-31T04:24:20.134Z,14.00
2022-12-31T04:25:20.312Z,14.00
2022-12-31T04:26:20.159Z,14.14
2022-12-31T04:27:20.101Z,14.14
2022-12-31T04:28:20.091Z,14.22
2022-12-31T04:29:20.142Z,14.11
2022-12-31T04:30:20.049Z,14.23
2022-12-31T04:31:20.111Z,14.17
2022-12-31T04:32:20.267Z,14.15
2022-12-31T04:33:20.084Z,14.07
2022-12-31T04:34:20.024Z,14.05
2022-12-31T04:35:20.187Z,14.05
2022-12-31T04:36:20.076Z,14.14
2022-12-31T04:37:20.014Z,14.15
2022-12-31T04:38:20.223Z,14.18
2022-12-31T04:39:20.012Z,14.23
2022-12-31T04:40:19.992Z,14.22
2022-12-31T04:41:19.961Z,14.30
2022-12-31T04:42:19.961Z,14.28
2022-12-31T04:43:19.992Z,14.36
2022-12-31T04:44:19.929Z,14.30
2022-12-31T04:45:19.918Z,14.20
2022-12-31T04:46:20.009Z,14.18
2022-12-31T04:47:23.541Z,14.18
2022-12-31T04:48:19.918Z,14.26
2022-12-31T04:49:19.887Z,14.20
2022-12-31T04:50:19.893Z,14.23
2022-12-31T04:51:19.893Z,14.15
2022-12-31T04:52:19.924Z,14.22
2022-12-31T04:53:19.875Z,14.22
2022-12-31T04:54:19.904Z,14.18
2022-12-31T04:55:19.834Z,14.23
2022-12-31T04:56:19.860Z,14.18
2022-12-31T04:57:19.841Z,14.28
2022-12-31T04:58:19.823Z,14.30
2022-12-31T04:59:19.837Z,14.28
2022-12-31T05:00:19.860Z,14.29
2022-12-31T05:01:19.938Z,14.30
2022-12-31T05:02:20.027Z,14.36
2022-12-31T05:03:19.846Z,14.32
2022-12-31T05:04:19.794Z,14.51
2022-12-31T05:05:19.727Z,14.54
2022-12-31T05:06:19.820Z,14.54
2022-12-31T05:07:19.737Z,14.44
2022-12-31T05:08:19.749Z,14.37
2022-12-31T05:09:19.725Z,14.32
2022-12-31T05:10:19.981Z,14.40
2022-12-31T05:11:19.721Z,14.41
2022-12-31T05:12:19.692Z,14.48
2022-12-31T05:13:19.727Z,14.48
2022-12-31T05:14:19.664Z,14.55
2022-12-31T05:15:19.645Z,14.53
2022-12-31T05:16:19.752Z,14.54
2022-12-31T05:17:19.630Z,14.55
2022-12-31T05:18:19.642Z,14.54
2022-12-31T05:19:19.647Z,14.62
2022-12-31T05:20:19.619Z,14.62
2022-12-31T05:21:19.636Z,14.48
2022-12-31T05:22:19.610Z,14.47
2022-12-31T05:23:19.677Z,14.55
2022-12-31T05:24:19.673Z,14.51
2022-12-31T05:25:19.628Z,14.44
2022-12-31T05:26:19.597Z,14.48
2022-12-31T05:27:19.619Z,14.53
2022-12-31T05:28:19.573Z,14.55
2022-12-31T05:29:19.560Z,14.53
2022-12-31T05:30:19.556Z,14.58
2022-12-31T05:31:19.615Z,14.55
2022-12-31T05:32:19.522Z,14.60
2022-12-31T05:33:19.517Z,14.68
2022-12-31T05:34:19.528Z,14.62
2022-12-31T05:35:19.540Z,14.59
2022-12-31T05:36:19.519Z,14.85
2022-12-31T05:37:19.687Z,14.79
2022-12-31T05:38:19.501Z,14.81
2022-12-31T05:39:19.490Z,14.82
2022-12-31T05:40:19.518Z,14.89
2022-12-31T05:41:19.515Z,14.89
2022-12-31T05:42:19.469Z,14.77
2022-12-31T05:43:19.468Z,14.79
2022-12-31T05:44:19.493Z,14.68
2022-12-31T05:45:21.042Z,14.84
2022-12-31T05:46:19.498Z,14.82
2022-12-31T05:47:19.427Z,14.89
2022-12-31T05:48:19.470Z,14.81
2022-12-31T05:49:19.422Z,14.79
2022-12-31T05:50:19.393Z,14.78
2022-12-31T05:51:19.411Z,14.86
2022-12-31T05:52:19.369Z,14.79
2022-12-31T05:53:19.358Z,14.91
2022-12-31T05:54:19.364Z,14.82
2022-12-31T05:55:19.373Z,14.78
2022-12-31T05:56:19.376Z,14.79
2022-12-31T05:57:19.348Z,14.81
2022-12-31T05:58:19.348Z,14.86
2022-12-31T05:59:19.365Z,14.81
2022-12-31T06:00:19.329Z,14.89
2022-12-31T06:01:19.346Z,14.94
2022-12-31T06:02:19.320Z,14.94
2022-12-31T06:03:19.401Z,14.96
2022-12-31T06:04:19.279Z,14.82
2022-12-31T06:05:25.713Z,14.84
2022-12-31T06:06:19.305Z,14.88
2022-12-31T06:07:19.246Z,14.85
2022-12-31T06:08:19.257Z,14.91
2022-12-31T06:09:19.284Z,14.88
2022-12-31T06:10:19.240Z,14.92
2022-12-31T06:11:19.224Z,14.92
2022-12-31T06:12:19.230Z,14.99
2022-12-31T06:13:19.196Z,14.96
2022-12-31T06:14:19.211Z,14.91
2022-12-31T06:15:19.177Z,14.94
2022-12-31T06:16:19.215Z,15.00
2022-12-31T06:17:19.154Z,14.99
2022-12-31T06:18:19.144Z,14.99
2022-12-31T06:19:19.147Z,15.00
2022-12-31T06:20:19.165Z,14.99
2022-12-31T06:21:19.148Z,15.02
2022-12-31T06:22:19.387Z,14.99
2022-12-31T06:23:19.119Z,15.10
2022-12-31T06:24:19.131Z,15.07
2022-12-31T06:25:19.087Z,15.06
2022-12-31T06:26:19.142Z,15.02
2022-12-31T06:27:19.159Z,15.06
2022-12-31T06:28:20.568Z,15.00
2022-12-31T06:29:19.096Z,15.17
2022-12-31T06:30:19.078Z,15.04
2022-12-31T06:31:19.124Z,15.07
2022-12-31T06:32:19.048Z,14.97
2022-12-31T06:33:19.043Z,15.02
2022-12-31T06:34:19.047Z,15.02
2022-12-31T06:35:19.049Z,15.03
2022-12-31T06:36:19.055Z,14.96
2022-12-31T06:37:19.002Z,14.92
2022-12-31T06:38:19.242Z,14.91
2022-12-31T06:39:19.005Z,15.07
2022-12-31T06:40:18.995Z,15.06
2022-12-31T06:41:18.999Z,15.00
2022-12-31T06:42:18.973Z,15.06
2022-12-31T06:43:18.989Z,15.06
2022-12-31T06:44:19.034Z,15.06
2022-12-31T06:45:18.964Z,14.99
2022-12-31T06:46:18.959Z,14.96
2022-12-31T06:47:18.945Z,14.99
2022-12-31T06:48:18.941Z,15.07
2022-12-31T06:49:18.942Z,15.03
2022-12-31T06:50:18.923Z,15.06
2022-12-31T06:51:18.905Z,15.06
2022-12-31T06:52:18.890Z,15.03
2022-12-31T06:53:18.905Z,15.04
2022-12-31T06:54:19.085Z,15.02
2022-12-31T06:55:18.899Z,15.03
2022-12-31T06:56:18.890Z,15.03
2022-12-31T06:57:18.884Z,15.15
2022-12-31T06:58:18.904Z,15.19
2022-12-31T06:59:18.835Z,15.15
2022-12-31T07:00:18.849Z,15.21
2022-12-31T07:01:19.193Z,15.22
2022-12-31T07:02:18.913Z,15.09
2022-12-31T07:03:18.891Z,15.06
2022-12-31T07:04:19.005Z,15.10
2022-12-31T07:05:18.809Z,15.10
2022-12-31T07:06:18.775Z,15.25
2022-12-31T07:07:18.822Z,15.22
2022-12-31T07:08:18.814Z,15.27
2022-12-31T07:09:18.772Z,15.18
2022-12-31T07:10:22.719Z,15.21
2022-12-31T07:11:18.766Z,15.17
2022-12-31T07:12:18.722Z,15.17
2022-12-31T07:13:18.730Z,15.15
2022-12-31T07:14:18.749Z,15.17
2022-12-31T07:15:18.760Z,15.09
2022-12-31T07:16:18.820Z,15.22
2022-12-31T07:17:18.716Z,15.10
2022-12-31T07:18:18.897Z,15.10
2022-12-31T07:19:18.932Z,15.09
2022-12-31T07:20:18.679Z,15.07
2022-12-31T07:21:18.690Z,15.18
2022-12-31T07:22:18.671Z,15.15
2022-12-31T07:23:18.657Z,15.24
2022-12-31T07:24:18.636Z,15.28
2022-12-31T07:25:18.627Z,15.25
2022-12-31T07:26:18.624Z,15.27
2022-12-31T07:27:18.651Z,15.25
2022-12-31T07:28:18.605Z,15.21
2022-12-31T07:29:18.633Z,15.11
2022-12-31T07:30:18.611Z,15.21
2022-12-31T07:31:18.680Z,15.17
2022-12-31T07:32:18.639Z,15.18
2022-12-31T07:33:18.572Z,15.18
2022-12-31T07:34:18.584Z,15.19
2022-12-31T07:35:18.605Z,15.22
2022-12-31T07:36:18.596Z,15.21
2022-12-31T07:37:18.550Z,15.25
2022-12-31T07:38:18.543Z,15.35
2022-12-31T07:39:18.532Z,15.43
2022-12-31T07:40:18.551Z,15.49
2022-12-31T07:41:18.749Z,15.49
2022-12-31T07:42:18.726Z,15.58
2022-12-31T07:43:18.505Z,15.59
2022-12-31T07:44:18.504Z,15.59
2022-12-31T07:45:18.491Z,15.57
2022-12-31T07:46:18.497Z,15.70
2022-12-31T07:47:18.480Z,15.64
2022-12-31T07:48:18.517Z,15.75
2022-12-31T07:49:18.669Z,15.61
2022-12-31T07:50:18.481Z,15.65
2022-12-31T07:51:18.469Z,15.62
2022-12-31T07:52:18.450Z,15.61
2022-12-31T07:53:18.473Z,15.64
2022-12-31T07:54:18.423Z,15.58
2022-12-31T07:55:18.438Z,15.57
2022-12-31T07:56:18.419Z,15.68
2022-12-31T07:57:18.423Z,15.70
2022-12-31T07:58:18.432Z,15.70
2022-12-31T07:59:23.903Z,15.70
2022-12-31T08:00:18.387Z,15.70
2022-12-31T08:01:18.445Z,15.72
2022-12-31T08:02:18.528Z,15.68
2022-12-31T08:03:18.342Z,15.80
2022-12-31T08:04:18.387Z,15.82
2022-12-31T08:05:18.324Z,15.76
2022-12-31T08:06:18.341Z,15.75
2022-12-31T08:07:18.328Z,15.77
2022-12-31T08:08:18.322Z,15.65
2022-12-31T08:09:18.311Z,15.79
2022-12-31T08:10:18.561Z,15.65
2022-12-31T08:11:18.287Z,15.68
2022-12-31T08:12:18.331Z,15.80
2022-12-31T08:13:18.315Z,15.72
2022-12-31T08:14:18.292Z,15.80
2022-12-31T08:15:18.280Z,15.80
2022-12-31T08:16:18.313Z,15.65
2022-12-31T08:17:18.287Z,15.86
2022-12-31T08:18:18.234Z,15.83
2022-12-31T08:19:18.431Z,15.92
2022-12-31T08:20:18.247Z,15.98
2022-12-31T08:21:18.217Z,16.02
2022-12-31T08:22:18.240Z,15.92
2022-12-31T08:23:18.329Z,15.94
2022-12-31T08:24:18.202Z,15.97
2022-12-31T08:25:18.193Z,16.10
2022-12-31T08:26:18.182Z,16.10
2022-12-31T08:27:18.191Z,16.05
2022-12-31T08:28:18.211Z,16.13
2022-12-31T08:29:18.178Z,16.05
2022-12-31T08:30:18.155Z,16.16
2022-12-31T08:31:18.206Z,16.10
2022-12-31T08:32:18.175Z,16.16
2022-12-31T08:33:18.164Z,16.23
2022-12-31T08:34:18.142Z,16.20
2022-12-31T08:35:18.153Z,16.26
2022-12-31T08:36:18.146Z,16.15
2022-12-31T08:37:18.138Z,16.16
2022-12-31T08:38:18.114Z,16.02
2022-12-31T08:39:18.098Z,16.09
2022-12-31T08:40:18.079Z,16.12
2022-12-31T08:41:18.097Z,16.15
2022-12-31T08:42:18.128Z,16.09
2022-12-31T08:43:18.201Z,16.08
2022-12-31T08:44:18.063Z,16.10
2022-12-31T08:45:18.092Z,16.13
2022-12-31T08:46:18.135Z,16.05
2022-12-31T08:47:18.312Z,16.02
2022-12-31T08:48:18.088Z,16.02
2022-12-31T08:49:18.016Z,16.16
2022-12-31T08:50:18.204Z,16.08
2022-12-31T08:51:18.037Z,16.16
2022-12-31T08:52:18.086Z,16.24
2022-12-31T08:53:17.998Z,16.21
2022-12-31T08:54:18.015Z,16.24
2022-12-31T08:55:18.019Z,16.24
2022-12-31T08:56:18.013Z,16.15
2022-12-31T08:57:18.007Z,16.15
2022-12-31T08:58:18.001Z,16.16
2022-12-31T08:59:17.993Z,16.20
2022-12-31T09:00:17.940Z,16.09
2022-12-31T09:01:18.284Z,16.13
2022-12-31T09:02:18.199Z,16.16
2022-12-31T09:03:17.958Z,16.21
2022-12-31T09:04:17.950Z,16.20
2022-12-31T09:05:17.915Z,16.24
2022-12-31T09:06:17.894Z,16.28
2022-12-31T09:07:17.891Z,16.33
2022-12-31T09:08:17.939Z,16.23
2022-12-31T09:09:17.877Z,16.32
2022-12-31T09:10:17.901Z,16.31
2022-12-31T09:11:22.812Z,16.35
2022-12-31T09:12:17.924Z,16.39
2022-12-31T09:13:17.860Z,16.49
2022-12-31T09:14:17.841Z,16.49
2022-12-31T09:15:17.850Z,16.49
2022-12-31T09:16:17.914Z,16.49
2022-12-31T09:17:17.858Z,16.47
2022-12-31T09:18:17.828Z,16.43
2022-12-31T09:19:17.838Z,16.49
2022-12-31T09:20:17.818Z,16.51
2022-12-31T09:21:17.822Z,16.46
2022-12-31T09:22:17.812Z,16.43
2022-12-31T09:23:17.826Z,16.41
2022-12-31T09:24:18.027Z,16.49
2022-12-31T09:25:17.822Z,16.51
2022-12-31T09:26:17.769Z,16.42
2022-12-31T09:27:22.484Z,16.35
2022-12-31T09:28:17.758Z,16.42
2022-12-31T09:29:17.750Z,16.46
2022-12-31T09:30:17.778Z,16.43
2022-12-31T09:31:17.847Z,16.46
2022-12-31T09:32:17.730Z,16.47
2022-12-31T09:33:17.739Z,16.43
2022-12-31T09:34:17.725Z,16.42
2022-12-31T09:35:17.949Z,16.50
2022-12-31T09:36:17.713Z,16.53
2022-12-31T09:37:17.712Z,16.57
2022-12-31T09:38:17.697Z,16.60
2022-12-31T09:39:17.682Z,16.58
2022-12-31T09:40:17.712Z,16.68
2022-12-31T09:41:17.706Z,16.68
2022-12-31T09:42:17.678Z,16.58
2022-12-31T09:43:17.699Z,16.65
2022-12-31T09:44:17.647Z,16.65
2022-12-31T09:45:17.869Z,16.75
2022-12-31T09:46:17.794Z,16.75
2022-12-31T09:47:17.654Z,16.72
2022-12-31T09:48:17.623Z,16.75
2022-12-31T09:49:17.826Z,16.68
2022-12-31T09:50:17.594Z,16.60
2022-12-31T09:51:23.356Z,16.75
2022-12-31T09:52:17.600Z,16.74
2022-12-31T09:53:17.597Z,16.78
2022-12-31T09:54:17.595Z,16.75
2022-12-31T09:55:17.565Z,16.78
2022-12-31T09:56:17.571Z,16.76
2022-12-31T09:57:17.555Z,16.79
2022-12-31T09:58:17.559Z,16.89
2022-12-31T09:59:17.531Z,16.84
2022-12-31T10:00:17.527Z,16.84
2022-12-31T10:01:17.694Z,16.86
2022-12-31T10:02:17.700Z,16.83
2022-12-31T10:03:17.691Z,16.84
2022-12-31T10:04:17.526Z,16.87
2022-12-31T10:05:17.500Z,16.84
2022-12-31T10:06:17.504Z,16.86
2022-12-31T10:07:17.506Z,16.89
2022-12-31T10:08:17.506Z,16.84
2022-12-31T10:09:17.470Z,16.87
2022-12-31T10:10:17.535Z,16.89
2022-12-31T10:11:17.515Z,16.90
2022-12-31T10:12:17.504Z,16.97
2022-12-31T10:13:17.449Z,16.96
2022-12-31T10:14:17.443Z,17.02
2022-12-31T10:15:17.434Z,17.05
2022-12-31T10:16:17.464Z,16.89
2022-12-31T10:17:17.433Z,16.89
2022-12-31T10:18:17.426Z,16.81
2022-12-31T10:19:17.617Z,16.93
2022-12-31T10:20:17.407Z,16.90
2022-12-31T10:21:17.490Z,16.91
2022-12-31T10:22:17.397Z,16.96
2022-12-31T10:23:17.420Z,16.89
2022-12-31T10:24:17.385Z,16.96
2022-12-31T10:25:17.382Z,17.01
2022-12-31T10:26:17.366Z,16.99
2022-12-31T10:27:17.384Z,17.14
2022-12-31T10:28:17.579Z,17.24
2022-12-31T10:29:17.363Z,17.23
2022-12-31T10:30:17.600Z,17.26
2022-12-31T10:31:17.411Z,17.26
2022-12-31T10:32:17.345Z,17.23
2022-12-31T10:33:17.342Z,17.26
2022-12-31T10:34:17.381Z,17.24
2022-12-31T10:35:17.330Z,17.26
2022-12-31T10:36:17.307Z,17.23
2022-12-31T10:37:17.300Z,17.29
2022-12-31T10:38:17.306Z,17.22
2022-12-31T10:39:23.840Z,17.23
2022-12-31T10:40:17.380Z,17.23
2022-12-31T10:41:17.272Z,17.15
2022-12-31T10:42:17.258Z,17.16
2022-12-31T10:43:17.285Z,17.11
2022-12-31T10:44:17.321Z,17.20
2022-12-31T10:45:17.253Z,17.15
2022-12-31T10:46:22.668Z,17.15
2022-12-31T10:47:17.266Z,17.16
2022-12-31T10:48:17.241Z,17.16
2022-12-31T10:49:17.238Z,17.20
2022-12-31T10:50:17.298Z,17.11
2022-12-31T10:51:17.213Z,17.09
2022-12-31T10:52:17.207Z,17.04
2022-12-31T10:53:17.189Z,17.01
2022-12-31T10:54:17.202Z,17.01
2022-12-31T10:55:17.208Z,16.97
2022-12-31T10:56:17.193Z,17.05
2022-12-31T10:57:17.215Z,16.97
2022-12-31T10:58:17.199Z,17.02
2022-12-31T10:59:17.171Z,16.97
2022-12-31T11:00:17.371Z,17.04
2022-12-31T11:01:17.265Z,17.08
2022-12-31T11:02:17.392Z,17.16
2022-12-31T11:03:17.853Z,17.14
2022-12-31T11:04:17.151Z,17.20
2022-12-31T11:05:17.145Z,17.23
2022-12-31T11:06:17.149Z,17.19
2022-12-31T11:07:17.135Z,17.27
2022-12-31T11:08:17.127Z,17.36
2022-12-31T11:09:17.291Z,17.27
2022-12-31T11:10:17.102Z,17.27
2022-12-31T11:11:17.170Z,17.20
2022-12-31T11:12:17.102Z,17.16
2022-12-31T11:13:17.081Z,17.24
2022-12-31T11:14:17.119Z,17.16
2022-12-31T11:15:17.091Z,17.20
2022-12-31T11:16:17.150Z,17.24
2022-12-31T11:17:17.047Z,17.16
2022-12-31T11:18:17.073Z,17.20
2022-12-31T11:19:17.090Z,17.23
2022-12-31T11:20:17.054Z,17.20
2022-12-31T11:21:17.065Z,17.22
2022-12-31T11:22:17.007Z,17.23
2022-12-31T11:23:17.036Z,17.22
2022-12-31T11:24:17.251Z,17.36
2022-12-31T11:25:17.066Z,17.36
2022-12-31T11:26:16.990Z,17.41
2022-12-31T11:27:16.989Z,17.36
2022-12-31T11:28:16.968Z,17.36
2022-12-31T11:29:16.982Z,17.46
2022-12-31T11:30:17.008Z,17.33
2022-12-31T11:31:17.026Z,17.36
2022-12-31T11:32:16.974Z,17.30
2022-12-31T11:33:17.013Z,17.34
2022-12-31T11:34:16.956Z,17.24
2022-12-31T11:35:16.998Z,17.23
2022-12-31T11:36:16.937Z,17.36
2022-12-31T11:37:16.955Z,17.36
2022-12-31T11:38:16.931Z,17.39
2022-12-31T11:39:16.895Z,17.46
2022-12-31T11:40:16.914Z,17.42
2022-12-31T11:41:16.888Z,17.39
2022-12-31T11:42:16.894Z,17.44
2022-12-31T11:43:16.887Z,17.46
2022-12-31T11:44:16.890Z,17.45
2022-12-31T11:45:16.876Z,17.45
2022-12-31T11:46:16.964Z,17.49
2022-12-31T11:47:16.864Z,17.54
2022-12-31T11:48:32.882Z,17.54
2022-12-31T11:49:16.867Z,17.51
2022-12-31T11:50:17.055Z,17.54
2022-12-31T11:51:16.860Z,17.56
2022-12-31T11:52:21.170Z,17.54
2022-12-31T11:53:16.809Z,17.56
2022-12-31T11:54:16.814Z,17.57
2022-12-31T11:55:17.226Z,17.56
2022-12-31T11:56:16.812Z,17.57
2022-12-31T11:57:16.834Z,17.65
2022-12-31T11:58:16.816Z,17.60
2022-12-31T11:59:19.604Z,17.64
2022-12-31T12:00:16.768Z,17.52
2022-12-31T12:01:16.794Z,17.54
2022-12-31T12:02:16.766Z,17.48
2022-12-31T12:03:16.767Z,17.42
2022-12-31T12:04:17.025Z,17.46
2022-12-31T12:05:16.991Z,17.44
2022-12-31T12:06:16.758Z,17.42
2022-12-31T12:07:16.743Z,17.42
2022-12-31T12:08:16.747Z,17.44
2022-12-31T12:09:16.745Z,17.46
2022-12-31T12:10:16.752Z,17.36
2022-12-31T12:11:16.719Z,17.45
2022-12-31T12:12:16.706Z,17.44
2022-12-31T12:13:16.685Z,17.42
2022-12-31T12:14:16.717Z,17.44
2022-12-31T12:15:16.682Z,17.44
2022-12-31T12:16:16.747Z,17.38
2022-12-31T12:17:16.671Z,17.42
2022-12-31T12:18:16.672Z,17.45
2022-12-31T12:19:16.668Z,17.45
2022-12-31T12:20:16.671Z,17.44
2022-12-31T12:21:16.650Z,17.49
2022-12-31T12:22:16.633Z,17.56
2022-12-31T12:23:16.733Z,17.56
2022-12-31T12:24:16.627Z,17.57
2022-12-31T12:25:16.619Z,17.56
2022-12-31T12:26:16.597Z,17.63
2022-12-31T12:27:16.802Z,17.68
2022-12-31T12:28:16.595Z,17.71
2022-12-31T12:29:16.619Z,17.65
2022-12-31T12:30:16.582Z,17.71
2022-12-31T12:31:16.669Z,17.82
2022-12-31T12:32:16.579Z,17.74
2022-12-31T12:33:16.772Z,17.82
2022-12-31T12:34:16.984Z,17.97
2022-12-31T12:35:16.760Z,17.92
2022-12-31T12:36:16.601Z,18.00
2022-12-31T12:37:16.578Z,18.07
2022-12-31T12:38:16.535Z,17.98
2022-12-31T12:39:16.539Z,18.15
2022-12-31T12:40:16.539Z,18.22
2022-12-31T12:41:16.558Z,18.18
2022-12-31T12:42:16.530Z,18.22
2022-12-31T12:43:16.526Z,18.31
2022-12-31T12:44:16.499Z,18.22
2022-12-31T12:45:16.493Z,18.23
2022-12-31T12:46:16.542Z,18.15
2022-12-31T12:47:16.686Z,18.16
2022-12-31T12:48:16.484Z,18.16
2022-12-31T12:49:16.476Z,18.26
2022-12-31T12:50:16.483Z,18.19
2022-12-31T12:51:16.481Z,18.19
2022-12-31T12:52:16.474Z,18.15